sensor_id;sensor_type;location;lat;lon;timestamp;pressure;altitude;pressure_sealevel;temperature;humidity
6567;BME280;3317;43.994;22.878;2023-02-18T00:00:28;101617.88;;;11.01;45.50
6567;BME280;3317;43.994;22.878;2023-02-18T00:02:55;101624.28;;;11.00;45.69
6567;BME280;3317;43.994;22.878;2023-02-18T00:05:22;101628.84;;;10.99;45.80
6567;BME280;3317;43.994;22.878;2023-02-18T00:07:49;101626.25;;;10.98;45.76
6567;BME280;3317;43.994;22.878;2023-02-18T00:10:17;101619.53;;;10.92;46.70
6567;BME280;3317;43.994;22.878;2023-02-18T00:12:45;101618.41;;;10.95;46.80
6567;BME280;3317;43.994;22.878;2023-02-18T00:15:12;101618.69;;;10.92;47.42
6567;BME280;3317;43.994;22.878;2023-02-18T00:17:39;101622.66;;;10.88;46.99
6567;BME280;3317;43.994;22.878;2023-02-18T00:20:07;101619.09;;;10.87;47.04
6567;BME280;3317;43.994;22.878;2023-02-18T00:22:34;101615.50;;;10.87;47.55
6567;BME280;3317;43.994;22.878;2023-02-18T00:25:01;101613.78;;;10.85;47.21
6567;BME280;3317;43.994;22.878;2023-02-18T00:27:29;101609.75;;;10.80;46.21
6567;BME280;3317;43.994;22.878;2023-02-18T00:29:57;101606.19;;;10.79;46.09
6567;BME280;3317;43.994;22.878;2023-02-18T00:32:24;101608.91;;;10.79;46.09
6567;BME280;3317;43.994;22.878;2023-02-18T00:34:51;101603.59;;;10.78;45.87
6567;BME280;3317;43.994;22.878;2023-02-18T00:37:18;101534.13;;;10.34;46.61
6567;BME280;3317;43.994;22.878;2023-02-18T00:39:45;101597.47;;;10.76;47.01
6567;BME280;3317;43.994;22.878;2023-02-18T00:42:11;101604.88;;;10.74;46.88
6567;BME280;3317;43.994;22.878;2023-02-18T00:44:40;101601.44;;;10.72;46.84
6567;BME280;3317;43.994;22.878;2023-02-18T00:47:07;101592.31;;;10.73;47.08
6567;BME280;3317;43.994;22.878;2023-02-18T00:49:34;101592.59;;;10.69;46.41
6567;BME280;3317;43.994;22.878;2023-02-18T00:52:01;101582.75;;;10.68;45.79
6567;BME280;3317;43.994;22.878;2023-02-18T00:54:28;101568.66;;;10.53;46.14
6567;BME280;3317;43.994;22.878;2023-02-18T00:56:54;101592.28;;;10.63;45.49
6567;BME280;3317;43.994;22.878;2023-02-18T00:59:21;101578.97;;;10.60;45.13
6567;BME280;3317;43.994;22.878;2023-02-18T01:01:50;101587.97;;;10.60;44.61
6567;BME280;3317;43.994;22.878;2023-02-18T01:04:17;101580.81;;;10.59;44.81
6567;BME280;3317;43.994;22.878;2023-02-18T01:06:43;101582.53;;;10.60;45.21
6567;BME280;3317;43.994;22.878;2023-02-18T01:09:10;101578.84;;;10.61;45.89
6567;BME280;3317;43.994;22.878;2023-02-18T01:11:37;101575.13;;;10.62;45.74
6567;BME280;3317;43.994;22.878;2023-02-18T01:14:04;101560.97;;;10.59;46.18
6567;BME280;3317;43.994;22.878;2023-02-18T01:16:31;101573.03;;;10.66;44.71
6567;BME280;3317;43.994;22.878;2023-02-18T01:18:59;101565.00;;;10.64;44.58
6567;BME280;3317;43.994;22.878;2023-02-18T01:21:26;101551.72;;;10.61;44.45
6567;BME280;3317;43.994;22.878;2023-02-18T01:23:53;101550.84;;;10.61;44.22
6567;BME280;3317;43.994;22.878;2023-02-18T01:26:20;101547.19;;;10.62;44.25
6567;BME280;3317;43.994;22.878;2023-02-18T01:28:47;101550.34;;;10.67;43.97
6567;BME280;3317;43.994;22.878;2023-02-18T01:31:14;101556.75;;;10.66;44.33
6567;BME280;3317;43.994;22.878;2023-02-18T01:33:42;101549.47;;;10.66;44.48
6567;BME280;3317;43.994;22.878;2023-02-18T01:36:10;101544.63;;;10.70;44.29
6567;BME280;3317;43.994;22.878;2023-02-18T01:38:38;101539.22;;;10.70;44.28
6567;BME280;3317;43.994;22.878;2023-02-18T01:41:05;101548.94;;;10.73;44.55
6567;BME280;3317;43.994;22.878;2023-02-18T01:43:32;101528.78;;;10.65;44.46
6567;BME280;3317;43.994;22.878;2023-02-18T01:46:05;101539.22;;;10.70;44.34
6567;BME280;3317;43.994;22.878;2023-02-18T01:48:35;101527.53;;;10.69;43.80
6567;BME280;3317;43.994;22.878;2023-02-18T01:51:09;101537.38;;;10.70;44.08
6567;BME280;3317;43.994;22.878;2023-02-18T01:53:44;101530.25;;;10.69;44.17
6567;BME280;3317;43.994;22.878;2023-02-18T01:56:17;101526.66;;;10.69;43.62
6567;BME280;3317;43.994;22.878;2023-02-18T01:58:46;101526.94;;;10.66;43.75
6567;BME280;3317;43.994;22.878;2023-02-18T02:01:14;101515.19;;;10.55;43.47
6567;BME280;3317;43.994;22.878;2023-02-18T02:03:41;101525.22;;;10.65;43.50
6567;BME280;3317;43.994;22.878;2023-02-18T02:06:15;101527.78;;;10.66;43.61
6567;BME280;3317;43.994;22.878;2023-02-18T02:08:45;101525.22;;;10.65;43.35
6567;BME280;3317;43.994;22.878;2023-02-18T02:11:35;101527.25;;;10.73;43.44
6567;BME280;3317;43.994;22.878;2023-02-18T02:14:15;101528.94;;;10.64;43.68
6567;BME280;3317;43.994;22.878;2023-02-18T02:16:54;101527.53;;;10.69;43.45
6567;BME280;3317;43.994;22.878;2023-02-18T02:19:55;101534.06;;;10.67;43.62
6567;BME280;3317;43.994;22.878;2023-02-18T02:22:51;101542.06;;;10.68;43.51
6567;BME280;3317;43.994;22.878;2023-02-18T02:26:02;101533.94;;;10.68;43.47
6567;BME280;3317;43.994;22.878;2023-02-18T02:29:00;101538.63;;;10.66;43.27
6567;BME280;3317;43.994;22.878;2023-02-18T02:31:46;101536.06;;;10.65;43.45
6567;BME280;3317;43.994;22.878;2023-02-18T02:34:44;101541.22;;;10.68;43.33
6567;BME280;3317;43.994;22.878;2023-02-18T02:37:17;101533.19;;;10.66;43.37
6567;BME280;3317;43.994;22.878;2023-02-18T02:40:00;101531.09;;;10.70;43.11
6567;BME280;3317;43.994;22.878;2023-02-18T02:42:36;101524.94;;;10.68;43.12
6567;BME280;3317;43.994;22.878;2023-02-18T02:45:10;101523.53;;;10.74;43.18
6567;BME280;3317;43.994;22.878;2023-02-18T02:47:44;101523.53;;;10.74;43.32
6567;BME280;3317;43.994;22.878;2023-02-18T02:50:20;101517.09;;;10.65;43.37
6567;BME280;3317;43.994;22.878;2023-02-18T02:52:52;101527.25;;;10.73;43.32
6567;BME280;3317;43.994;22.878;2023-02-18T02:55:23;101531.56;;;10.75;42.93
6567;BME280;3317;43.994;22.878;2023-02-18T02:57:52;101540.41;;;10.77;43.09
6567;BME280;3317;43.994;22.878;2023-02-18T03:00:22;101547.25;;;10.81;43.37
6567;BME280;3317;43.994;22.878;2023-02-18T03:03:10;101524.66;;;10.71;43.38
6567;BME280;3317;43.994;22.878;2023-02-18T03:05:51;101545.41;;;10.82;43.09
6567;BME280;3317;43.994;22.878;2023-02-18T03:08:29;101531.88;;;10.82;43.41
6567;BME280;3317;43.994;22.878;2023-02-18T03:11:03;101541.56;;;10.84;43.20
6567;BME280;3317;43.994;22.878;2023-02-18T03:13:52;101525.03;;;10.88;43.03
6567;BME280;3317;43.994;22.878;2023-02-18T03:16:30;101516.44;;;10.82;42.69
6567;BME280;3317;43.994;22.878;2023-02-18T03:19:07;101507.31;;;10.83;42.90
6567;BME280;3317;43.994;22.878;2023-02-18T03:21:41;101492.75;;;10.84;42.71
6567;BME280;3317;43.994;22.878;2023-02-18T03:24:13;101499.88;;;10.85;42.63
6567;BME280;3317;43.994;22.878;2023-02-18T03:26:46;101491.31;;;10.80;42.43
6567;BME280;3317;43.994;22.878;2023-02-18T03:29:15;101508.22;;;10.94;42.39
6567;BME280;3317;43.994;22.878;2023-02-18T03:31:46;101511.03;;;10.92;42.21
6567;BME280;3317;43.994;22.878;2023-02-18T03:34:16;101476.75;;;10.81;42.03
6567;BME280;3317;43.994;22.878;2023-02-18T03:36:46;101501.69;;;11.06;41.92
6567;BME280;3317;43.994;22.878;2023-02-18T03:39:14;101512.25;;;11.09;41.97
6567;BME280;3317;43.994;22.878;2023-02-18T03:41:42;101501.56;;;11.18;41.75
6567;BME280;3317;43.994;22.878;2023-02-18T03:44:10;101503.16;;;11.20;41.94
6567;BME280;3317;43.994;22.878;2023-02-18T03:46:39;101495.03;;;11.20;41.70
6567;BME280;3317;43.994;22.878;2023-02-18T03:49:08;101501.72;;;11.26;41.46
6567;BME280;3317;43.994;22.878;2023-02-18T03:51:36;101505.16;;;11.28;41.58
6567;BME280;3317;43.994;22.878;2023-02-18T03:54:04;101502.16;;;11.31;41.81
6567;BME280;3317;43.994;22.878;2023-02-18T03:56:32;101513.44;;;11.36;41.72
6567;BME280;3317;43.994;22.878;2023-02-18T03:58:59;101508.72;;;11.38;41.38
6567;BME280;3317;43.994;22.878;2023-02-18T04:01:26;101506.59;;;11.42;41.71
6567;BME280;3317;43.994;22.878;2023-02-18T04:03:53;101502.06;;;11.43;41.65
6567;BME280;3317;43.994;22.878;2023-02-18T04:06:21;101489.19;;;11.45;41.46
6567;BME280;3317;43.994;22.878;2023-02-18T04:08:48;101486.06;;;11.49;41.78
6567;BME280;3317;43.994;22.878;2023-02-18T04:11:17;101471.47;;;11.50;41.54
6567;BME280;3317;43.994;22.878;2023-02-18T04:13:43;101462.06;;;11.45;41.63
6567;BME280;3317;43.994;22.878;2023-02-18T04:16:11;101488.06;;;11.57;41.81
6567;BME280;3317;43.994;22.878;2023-02-18T04:18:37;101479.75;;;11.59;41.97
6567;BME280;3317;43.994;22.878;2023-02-18T04:21:04;101482.22;;;11.62;41.56
6567;BME280;3317;43.994;22.878;2023-02-18T04:23:31;101483.03;;;11.62;41.78
6567;BME280;3317;43.994;22.878;2023-02-18T04:25:58;101491.63;;;11.67;41.99
6567;BME280;3317;43.994;22.878;2023-02-18T04:28:27;101488.94;;;11.67;41.74
6567;BME280;3317;43.994;22.878;2023-02-18T04:30:53;101495.06;;;11.69;41.89
6567;BME280;3317;43.994;22.878;2023-02-18T04:33:20;101490.34;;;11.72;41.99
6567;BME280;3317;43.994;22.878;2023-02-18T04:35:47;101483.06;;;11.72;41.66
6567;BME280;3317;43.994;22.878;2023-02-18T04:38:14;101475.91;;;11.71;42.06
6567;BME280;3317;43.994;22.878;2023-02-18T04:40:41;101482.06;;;11.73;41.20
6567;BME280;3317;43.994;22.878;2023-02-18T04:43:08;101473.63;;;11.76;41.27
6567;BME280;3317;43.994;22.878;2023-02-18T04:45:36;101470.19;;;11.74;41.83
6567;BME280;3317;43.994;22.878;2023-02-18T04:48:04;101464.47;;;11.77;41.26
6567;BME280;3317;43.994;22.878;2023-02-18T04:50:31;101469.03;;;11.77;41.48
6567;BME280;3317;43.994;22.878;2023-02-18T04:52:58;101456.31;;;11.77;41.25
6567;BME280;3317;43.994;22.878;2023-02-18T04:55:25;101460.06;;;11.76;41.61
6567;BME280;3317;43.994;22.878;2023-02-18T04:57:51;101465.47;;;11.76;41.69
6567;BME280;3317;43.994;22.878;2023-02-18T05:00:19;101469.34;;;11.74;41.43
6567;BME280;3317;43.994;22.878;2023-02-18T05:02:47;101463.47;;;11.78;41.41
6567;BME280;3317;43.994;22.878;2023-02-18T05:05:15;101473.47;;;11.78;41.59
6567;BME280;3317;43.994;22.878;2023-02-18T05:07:42;101469.78;;;11.79;41.65
6567;BME280;3317;43.994;22.878;2023-02-18T05:10:10;101474.06;;;11.72;41.50
6567;BME280;3317;43.994;22.878;2023-02-18T05:12:40;101468.31;;;11.75;41.28
6567;BME280;3317;43.994;22.878;2023-02-18T05:15:08;101470.91;;;11.76;41.13
6567;BME280;3317;43.994;22.878;2023-02-18T05:17:35;101478.91;;;11.78;40.92
6567;BME280;3317;43.994;22.878;2023-02-18T05:20:04;101484.91;;;11.81;40.99
6567;BME280;3317;43.994;22.878;2023-02-18T05:22:31;101459.78;;;11.69;41.02
6567;BME280;3317;43.994;22.878;2023-02-18T05:24:58;101474.22;;;11.80;41.15
6567;BME280;3317;43.994;22.878;2023-02-18T05:27:25;101458.75;;;11.71;40.91
6567;BME280;3317;43.994;22.878;2023-02-18T05:29:52;101475.91;;;11.81;40.64
6567;BME280;3317;43.994;22.878;2023-02-18T05:32:19;101480.47;;;11.80;40.64
6567;BME280;3317;43.994;22.878;2023-02-18T05:34:46;101476.91;;;11.80;41.05
6567;BME280;3317;43.994;22.878;2023-02-18T05:37:14;101468.50;;;11.73;41.09
6567;BME280;3317;43.994;22.878;2023-02-18T05:39:42;101474.03;;;11.81;41.04
6567;BME280;3317;43.994;22.878;2023-02-18T05:42:10;101484.19;;;11.79;41.18
6567;BME280;3317;43.994;22.878;2023-02-18T05:44:37;101475.91;;;11.81;41.16
6567;BME280;3317;43.994;22.878;2023-02-18T05:47:05;101461.59;;;11.69;40.90
6567;BME280;3317;43.994;22.878;2023-02-18T05:49:33;101477.19;;;11.77;40.88
6567;BME280;3317;43.994;22.878;2023-02-18T05:52:01;101482.34;;;11.80;41.19
6567;BME280;3317;43.994;22.878;2023-02-18T05:54:29;101463.91;;;11.64;41.06
6567;BME280;3317;43.994;22.878;2023-02-18T05:56:56;101469.19;;;11.75;40.97
6567;BME280;3317;43.994;22.878;2023-02-18T05:59:23;101472.03;;;11.74;41.12
6567;BME280;3317;43.994;22.878;2023-02-18T06:01:50;101481.34;;;11.81;41.23
6567;BME280;3317;43.994;22.878;2023-02-18T06:04:17;101477.47;;;11.83;40.81
6567;BME280;3317;43.994;22.878;2023-02-18T06:06:44;101475.31;;;11.87;40.64
6567;BME280;3317;43.994;22.878;2023-02-18T06:09:11;101473.03;;;11.82;40.67
6567;BME280;3317;43.994;22.878;2023-02-18T06:11:39;101473.63;;;11.86;40.37
6567;BME280;3317;43.994;22.878;2023-02-18T06:14:06;101477.19;;;11.87;40.20
6567;BME280;3317;43.994;22.878;2023-02-18T06:16:34;101476.31;;;11.86;39.90
6567;BME280;3317;43.994;22.878;2023-02-18T06:19:00;101475.47;;;11.95;39.82
6567;BME280;3317;43.994;22.878;2023-02-18T06:21:27;101489.75;;;11.97;40.41
6567;BME280;3317;43.994;22.878;2023-02-18T06:23:54;101492.78;;;11.94;40.13
6567;BME280;3317;43.994;22.878;2023-02-18T06:26:21;101490.34;;;12.01;39.79
6567;BME280;3317;43.994;22.878;2023-02-18T06:28:49;101481.03;;;12.04;40.05
6567;BME280;3317;43.994;22.878;2023-02-18T06:31:16;101488.75;;;12.08;40.44
6567;BME280;3317;43.994;22.878;2023-02-18T06:33:43;101479.59;;;12.09;40.58
6567;BME280;3317;43.994;22.878;2023-02-18T06:36:11;101493.34;;;12.08;40.33
6567;BME280;3317;43.994;22.878;2023-02-18T06:38:39;101500.06;;;12.14;40.32
6567;BME280;3317;43.994;22.878;2023-02-18T06:41:06;101472.63;;;12.07;40.08
6567;BME280;3317;43.994;22.878;2023-02-18T06:43:34;101492.91;;;12.22;40.17
6567;BME280;3317;43.994;22.878;2023-02-18T06:46:03;101474.59;;;12.24;40.12
6567;BME280;3317;43.994;22.878;2023-02-18T06:48:30;101485.16;;;12.28;39.94
6567;BME280;3317;43.994;22.878;2023-02-18T06:50:57;101489.31;;;12.32;40.27
6567;BME280;3317;43.994;22.878;2023-02-18T06:53:24;101488.84;;;12.36;40.47
6567;BME280;3317;43.994;22.878;2023-02-18T06:55:51;101497.72;;;12.38;40.18
6567;BME280;3317;43.994;22.878;2023-02-18T06:58:18;101481.97;;;12.42;40.17
6567;BME280;3317;43.994;22.878;2023-02-18T07:00:45;101497.00;;;12.46;40.42
6567;BME280;3317;43.994;22.878;2023-02-18T07:03:14;101484.13;;;12.38;40.25
6567;BME280;3317;43.994;22.878;2023-02-18T07:05:41;101495.25;;;12.55;40.60
6567;BME280;3317;43.994;22.878;2023-02-18T07:08:09;101504.97;;;12.58;40.61
6567;BME280;3317;43.994;22.878;2023-02-18T07:10:36;101498.81;;;12.56;40.26
6567;BME280;3317;43.994;22.878;2023-02-18T07:13:03;101499.53;;;12.58;40.44
6567;BME280;3317;43.994;22.878;2023-02-18T07:15:30;101501.06;;;12.60;40.46
6567;BME280;3317;43.994;22.878;2023-02-18T07:17:58;101512.53;;;12.64;39.71
6567;BME280;3317;43.994;22.878;2023-02-18T07:20:26;101515.66;;;12.69;39.59
6567;BME280;3317;43.994;22.878;2023-02-18T07:22:54;101515.06;;;12.75;39.53
6567;BME280;3317;43.994;22.878;2023-02-18T07:25:21;101514.06;;;12.76;39.86
6567;BME280;3317;43.994;22.878;2023-02-18T07:27:48;101505.59;;;12.79;39.83
6567;BME280;3317;43.994;22.878;2023-02-18T07:30:15;101502.34;;;12.76;40.14
6567;BME280;3317;43.994;22.878;2023-02-18T07:32:42;101520.16;;;12.88;39.46
6567;BME280;3317;43.994;22.878;2023-02-18T07:35:13;101522.34;;;12.85;39.56
6567;BME280;3317;43.994;22.878;2023-02-18T07:37:43;101523.44;;;12.92;39.46
6567;BME280;3317;43.994;22.878;2023-02-18T07:40:12;101536.59;;;12.96;39.33
6567;BME280;3317;43.994;22.878;2023-02-18T07:42:39;101530.69;;;13.01;39.32
6567;BME280;3317;43.994;22.878;2023-02-18T07:45:07;101533.28;;;13.03;38.81
6567;BME280;3317;43.994;22.878;2023-02-18T07:47:34;101533.53;;;13.09;39.28
6567;BME280;3317;43.994;22.878;2023-02-18T07:50:01;101532.53;;;13.10;39.07
6567;BME280;3317;43.994;22.878;2023-02-18T07:52:28;101532.91;;;13.16;39.27
6567;BME280;3317;43.994;22.878;2023-02-18T07:54:56;101537.34;;;13.17;39.14
6567;BME280;3317;43.994;22.878;2023-02-18T07:57:23;101537.44;;;13.25;39.17
6567;BME280;3317;43.994;22.878;2023-02-18T07:59:50;101534.03;;;13.23;38.87
6567;BME280;3317;43.994;22.878;2023-02-18T08:02:18;101550.44;;;13.31;39.09
6567;BME280;3317;43.994;22.878;2023-02-18T08:04:46;101544.72;;;13.34;39.25
6567;BME280;3317;43.994;22.878;2023-02-18T08:07:14;101539.94;;;13.46;39.36
6567;BME280;3317;43.994;22.878;2023-02-18T08:09:41;101527.66;;;13.32;38.76
6567;BME280;3317;43.994;22.878;2023-02-18T08:12:09;101551.69;;;13.47;38.78
6567;BME280;3317;43.994;22.878;2023-02-18T08:14:36;101552.06;;;13.52;38.58
6567;BME280;3317;43.994;22.878;2023-02-18T08:17:03;101553.66;;;13.55;38.77
6567;BME280;3317;43.994;22.878;2023-02-18T08:19:30;101549.91;;;13.56;38.40
6567;BME280;3317;43.994;22.878;2023-02-18T08:22:00;101547.56;;;13.61;38.65
6567;BME280;3317;43.994;22.878;2023-02-18T08:24:27;101548.97;;;13.65;38.60
6567;BME280;3317;43.994;22.878;2023-02-18T08:26:54;101548.50;;;13.70;38.64
6567;BME280;3317;43.994;22.878;2023-02-18T08:29:23;101544.31;;;13.75;38.44
6567;BME280;3317;43.994;22.878;2023-02-18T08:31:49;101540.75;;;13.75;38.35
6567;BME280;3317;43.994;22.878;2023-02-18T08:34:18;101532.81;;;13.82;38.47
6567;BME280;3317;43.994;22.878;2023-02-18T08:36:45;101534.84;;;13.79;38.26
6567;BME280;3317;43.994;22.878;2023-02-18T08:39:12;101535.06;;;13.86;38.20
6567;BME280;3317;43.994;22.878;2023-02-18T08:41:39;101533.19;;;13.87;38.11
6567;BME280;3317;43.994;22.878;2023-02-18T08:44:06;101541.59;;;13.93;37.80
6567;BME280;3317;43.994;22.878;2023-02-18T08:46:34;101544.31;;;13.93;38.02
6567;BME280;3317;43.994;22.878;2023-02-18T08:49:02;101548.84;;;14.03;38.04
6567;BME280;3317;43.994;22.878;2023-02-18T08:51:30;101546.34;;;14.10;37.92
6567;BME280;3317;43.994;22.878;2023-02-18T08:53:57;101557.78;;;14.13;37.98
6567;BME280;3317;43.994;22.878;2023-02-18T08:56:24;101553.56;;;14.19;37.90
6567;BME280;3317;43.994;22.878;2023-02-18T08:58:51;101557.69;;;14.23;37.82
6567;BME280;3317;43.994;22.878;2023-02-18T09:01:18;101546.84;;;14.31;37.52
6567;BME280;3317;43.994;22.878;2023-02-18T09:03:46;101539.50;;;14.32;37.11
6567;BME280;3317;43.994;22.878;2023-02-18T09:06:14;101551.72;;;14.46;37.44
6567;BME280;3317;43.994;22.878;2023-02-18T09:08:41;101537.69;;;14.41;36.67
6567;BME280;3317;43.994;22.878;2023-02-18T09:11:08;101539.84;;;14.55;37.00
6567;BME280;3317;43.994;22.878;2023-02-18T09:13:36;101546.69;;;14.59;36.92
6567;BME280;3317;43.994;22.878;2023-02-18T09:16:05;101552.66;;;14.63;36.60
6567;BME280;3317;43.994;22.878;2023-02-18T09:18:33;101557.19;;;14.72;36.33
6567;BME280;3317;43.994;22.878;2023-02-18T09:21:03;101557.72;;;14.76;36.17
6567;BME280;3317;43.994;22.878;2023-02-18T09:23:32;101550.25;;;14.78;36.46
6567;BME280;3317;43.994;22.878;2023-02-18T09:25:59;101557.59;;;14.86;36.20
6567;BME280;3317;43.994;22.878;2023-02-18T09:28:29;101559.03;;;14.90;36.21
6567;BME280;3317;43.994;22.878;2023-02-18T09:30:56;101547.78;;;14.93;35.96
6567;BME280;3317;43.994;22.878;2023-02-18T09:33:24;101554.28;;;15.00;36.33
6567;BME280;3317;43.994;22.878;2023-02-18T09:35:51;101555.97;;;15.01;35.87
6567;BME280;3317;43.994;22.878;2023-02-18T09:38:19;101552.06;;;15.04;36.19
6567;BME280;3317;43.994;22.878;2023-02-18T09:40:50;101556.50;;;15.05;35.97
6567;BME280;3317;43.994;22.878;2023-02-18T09:43:26;101538.91;;;14.99;35.87
6567;BME280;3317;43.994;22.878;2023-02-18T09:45:55;101553.28;;;15.10;36.07
6567;BME280;3317;43.994;22.878;2023-02-18T09:48:26;101566.13;;;15.17;36.29
6567;BME280;3317;43.994;22.878;2023-02-18T09:50:54;101550.28;;;15.21;36.03
6567;BME280;3317;43.994;22.878;2023-02-18T09:53:23;101537.81;;;15.18;35.60
6567;BME280;3317;43.994;22.878;2023-02-18T09:55:51;101540.38;;;15.20;35.61
6567;BME280;3317;43.994;22.878;2023-02-18T09:58:21;101539.03;;;15.24;35.81
6567;BME280;3317;43.994;22.878;2023-02-18T10:00:52;101522.97;;;15.21;35.99
6567;BME280;3317;43.994;22.878;2023-02-18T10:03:21;101526.56;;;15.30;35.81
6567;BME280;3317;43.994;22.878;2023-02-18T10:05:55;101523.19;;;15.36;35.70
6567;BME280;3317;43.994;22.878;2023-02-18T10:08:27;101530.38;;;15.45;35.57
6567;BME280;3317;43.994;22.878;2023-02-18T10:10:55;101491.75;;;15.32;36.02
6567;BME280;3317;43.994;22.878;2023-02-18T10:13:24;101523.25;;;15.61;35.63
6567;BME280;3317;43.994;22.878;2023-02-18T10:15:51;101517.28;;;15.57;35.68
6567;BME280;3317;43.994;22.878;2023-02-18T10:18:26;101528.91;;;15.68;35.87
6567;BME280;3317;43.994;22.878;2023-02-18T10:20:59;101523.28;;;15.77;35.43
6567;BME280;3317;43.994;22.878;2023-02-18T10:23:30;101520.72;;;15.84;35.58
6567;BME280;3317;43.994;22.878;2023-02-18T10:26:00;101506.03;;;15.85;35.47
6567;BME280;3317;43.994;22.878;2023-02-18T10:28:29;101510.69;;;16.01;35.72
6567;BME280;3317;43.994;22.878;2023-02-18T10:31:01;101508.78;;;16.10;34.72
6567;BME280;3317;43.994;22.878;2023-02-18T10:33:34;101507.41;;;16.14;34.64
6567;BME280;3317;43.994;22.878;2023-02-18T10:36:23;101508.78;;;16.18;34.14
6567;BME280;3317;43.994;22.878;2023-02-18T10:39:12;101508.59;;;16.28;34.13
6567;BME280;3317;43.994;22.878;2023-02-18T10:41:49;101499.00;;;16.32;33.82
6567;BME280;3317;43.994;22.878;2023-02-18T10:44:23;101495.41;;;16.40;33.98
6567;BME280;3317;43.994;22.878;2023-02-18T10:47:00;101494.00;;;16.53;33.81
6567;BME280;3317;43.994;22.878;2023-02-18T10:49:47;101488.53;;;16.53;33.89
6567;BME280;3317;43.994;22.878;2023-02-18T10:52:18;101482.38;;;16.59;33.87
6567;BME280;3317;43.994;22.878;2023-02-18T10:54:52;101476.19;;;16.65;34.08
6567;BME280;3317;43.994;22.878;2023-02-18T10:57:21;101482.69;;;16.72;33.26
6567;BME280;3317;43.994;22.878;2023-02-18T10:59:57;101481.44;;;16.75;33.76
6567;BME280;3317;43.994;22.878;2023-02-18T11:02:27;101476.13;;;16.82;33.80
6567;BME280;3317;43.994;22.878;2023-02-18T11:04:56;101489.47;;;16.85;33.96
6567;BME280;3317;43.994;22.878;2023-02-18T11:07:29;101474.91;;;16.84;33.75
6567;BME280;3317;43.994;22.878;2023-02-18T11:09:59;101467.91;;;16.82;33.20
6567;BME280;3317;43.994;22.878;2023-02-18T11:12:29;101475.94;;;16.92;33.40
6567;BME280;3317;43.994;22.878;2023-02-18T11:15:14;101467.19;;;16.96;33.79
6567;BME280;3317;43.994;22.878;2023-02-18T11:17:43;101478.31;;;17.03;33.68
6567;BME280;3317;43.994;22.878;2023-02-18T11:20:25;101461.19;;;17.01;34.14
6567;BME280;3317;43.994;22.878;2023-02-18T11:22:56;101480.69;;;17.06;33.93
6567;BME280;3317;43.994;22.878;2023-02-18T11:25:26;101471.22;;;17.09;33.82
6567;BME280;3317;43.994;22.878;2023-02-18T11:27:55;101463.72;;;17.11;33.63
6567;BME280;3317;43.994;22.878;2023-02-18T11:30:25;101463.34;;;17.14;33.60
6567;BME280;3317;43.994;22.878;2023-02-18T11:32:54;101459.41;;;17.16;33.70
6567;BME280;3317;43.994;22.878;2023-02-18T11:35:24;101462.94;;;17.25;33.80
6567;BME280;3317;43.994;22.878;2023-02-18T11:37:53;101438.34;;;17.17;33.55
6567;BME280;3317;43.994;22.878;2023-02-18T11:40:27;101441.69;;;17.27;33.56
6567;BME280;3317;43.994;22.878;2023-02-18T11:43:05;101439.78;;;17.28;34.38
6567;BME280;3317;43.994;22.878;2023-02-18T11:45:34;101438.22;;;17.34;34.70
6567;BME280;3317;43.994;22.878;2023-02-18T11:48:06;101380.94;;;17.00;33.87
6567;BME280;3317;43.994;22.878;2023-02-18T11:50:34;101419.41;;;17.30;33.98
6567;BME280;3317;43.994;22.878;2023-02-18T11:53:28;101417.34;;;17.33;33.75
6567;BME280;3317;43.994;22.878;2023-02-18T11:55:56;101429.16;;;17.33;33.91
6567;BME280;3317;43.994;22.878;2023-02-18T11:58:24;101416.31;;;17.34;33.89
6567;BME280;3317;43.994;22.878;2023-02-18T12:00:55;101435.47;;;17.34;33.57
6567;BME280;3317;43.994;22.878;2023-02-18T12:03:29;101431.25;;;17.31;33.79
6567;BME280;3317;43.994;22.878;2023-02-18T12:06:00;101433.59;;;17.34;34.13
6567;BME280;3317;43.994;22.878;2023-02-18T12:08:34;101422.09;;;17.39;34.19
6567;BME280;3317;43.994;22.878;2023-02-18T12:11:09;101423.16;;;17.38;34.20
6567;BME280;3317;43.994;22.878;2023-02-18T12:13:42;101417.47;;;17.39;34.19
6567;BME280;3317;43.994;22.878;2023-02-18T12:16:17;101415.22;;;17.43;34.05
6567;BME280;3317;43.994;22.878;2023-02-18T12:19:05;101421.91;;;17.40;34.24
6567;BME280;3317;43.994;22.878;2023-02-18T12:21:44;101398.84;;;17.35;34.15
6567;BME280;3317;43.994;22.878;2023-02-18T12:24:30;101410.16;;;17.31;34.38
6567;BME280;3317;43.994;22.878;2023-02-18T12:27:10;101396.97;;;17.35;34.34
6567;BME280;3317;43.994;22.878;2023-02-18T12:30:20;101398.00;;;17.34;34.40
6567;BME280;3317;43.994;22.878;2023-02-18T12:32:55;101398.38;;;17.31;34.25
6567;BME280;3317;43.994;22.878;2023-02-18T12:35:38;101399.03;;;17.33;34.65
6567;BME280;3317;43.994;22.878;2023-02-18T12:38:28;101391.66;;;17.34;34.62
6567;BME280;3317;43.994;22.878;2023-02-18T12:41:11;101401.28;;;17.29;34.81
6567;BME280;3317;43.994;22.878;2023-02-18T12:43:50;101401.16;;;17.23;34.57
6567;BME280;3317;43.994;22.878;2023-02-18T12:46:31;101396.16;;;17.26;34.74
6567;BME280;3317;43.994;22.878;2023-02-18T12:49:28;101370.84;;;17.24;35.20
6567;BME280;3317;43.994;22.878;2023-02-18T12:52:15;101395.13;;;17.27;34.96
6567;BME280;3317;43.994;22.878;2023-02-18T12:55:01;101400.44;;;17.29;35.06
6567;BME280;3317;43.994;22.878;2023-02-18T12:57:42;101353.19;;;17.03;34.84
6567;BME280;3317;43.994;22.878;2023-02-18T13:00:38;101398.25;;;17.24;35.06
6567;BME280;3317;43.994;22.878;2023-02-18T13:03:35;101393.09;;;17.21;34.80
6567;BME280;3317;43.994;22.878;2023-02-18T13:06:27;101389.22;;;17.15;34.88
6567;BME280;3317;43.994;22.878;2023-02-18T13:09:02;101399.31;;;17.15;35.02
6567;BME280;3317;43.994;22.878;2023-02-18T13:11:37;101407.84;;;17.20;34.86
6567;BME280;3317;43.994;22.878;2023-02-18T13:14:11;101399.69;;;17.12;34.72
6567;BME280;3317;43.994;22.878;2023-02-18T13:16:41;101400.53;;;17.12;34.52
6567;BME280;3317;43.994;22.878;2023-02-18T13:19:18;101387.88;;;17.11;34.54